Buoy 46565

sailwx.info

Track history (hours):
 
Tides and Currents Weather Stations Pressure Air Temp Water Temp Dewpoint Dewpoint Depression Visibility Wind Speed Wind Dir Waves Ship Positions

Drifting buoy 46565

Last reported at 2018-Feb-26 01:00 UTC. Time now 2018-Feb-26 02:05 UTC.
Position N 55°38' W 151°35'.

Water temperature 4.0 ° C

Date/timePositionNaut miles runAvg speedWind from/ knotsBaromVisibWave heightAir tempDewpointWater temp
2018-Feb-26 01:00N 55°38' W 151°35'0 0.0 4.0
2018-Feb-26 00:00N 55°38' W 151°35'0 0.3 4.0
2018-Feb-25 23:00N 55°38' W 151°36'1 1.2 4.0
2018-Feb-25 22:00N 55°38' W 151°38'0 0.0 4.0
2018-Feb-25 21:00N 55°38' W 151°38'1 0.9 4.0
2018-Feb-25 20:00N 55°38' W 151°39'0 0.3 4.0
2018-Feb-25 19:00N 55°38' W 151°40'1 1.2 4.0
2018-Feb-25 18:00N 55°40' W 151°40'0 0.3 4.0
2018-Feb-25 17:00N 55°40' W 151°41'1 1.2 4.0
2018-Feb-25 16:00N 55°40' W 151°43'2 1.1 4.0
2018-Feb-25 14:00N 55°41' W 151°46'1 0.6 4.1
2018-Feb-25 13:00N 55°41' W 151°46'6 1.2 4.1
2018-Feb-25 08:00N 55°44' W 151°56'1 1.2 4.2
2018-Feb-25 07:00N 55°44' W 151°58'1 0.7 4.2
2018-Feb-25 06:00N 55°45' W 151°58'1 1.2 4.2
2018-Feb-25 05:00N 55°46' W 151°59'1 1.4 4.2
2018-Feb-25 04:00N 55°47' W 152°01'1 0.9 4.2
2018-Feb-25 03:00N 55°47' W 152°02'2 1.6 4.2
2018-Feb-25 02:00N 55°49' W 152°04'2 1.8 4.2
2018-Feb-25 01:00N 55°50' W 152°06'1 1.5 4.3
2018-Feb-25 00:00N 55°50' W 152°08'0 0.0 4.3
2018-Feb-24 23:00N 55°50' W 152°08'3 1.3 4.4
2018-Feb-24 21:00N 55°52' W 152°13'1 0.9 4.5
2018-Feb-24 20:00N 55°52' W 152°14'1 1.2 4.6
2018-Feb-24 19:00N 55°53' W 152°16'1 1.2 4.6
2018-Feb-24 18:00N 55°54' W 152°16'1 0.7 4.8
2018-Feb-24 17:00N 55°55' W 152°16'1 1.2 4.9
2018-Feb-24 16:00N 55°56' W 152°17'2 2.5 5.0
2018-Feb-24 15:00N 55°58' W 152°18'8 7.8 5.1
2018-Feb-24 14:00N 56°05' W 152°23'0 0.0 5.2
2018-Feb-24 13:00N 56°05' W 152°23'1 0.1 5.3
2018-Feb-24 08:00N 56°06' W 152°23'1 0.7 5.5
2018-Feb-24 07:00N 56°07' W 152°23'0 0.3 5.5
2018-Feb-24 06:00N 56°07' W 152°23'1 0.9 5.5
2018-Feb-24 05:00N 56°07' W 152°22'2 1.8 5.5
2018-Feb-24 04:00N 56°08' W 152°19'0 0.3 5.5
2018-Feb-24 03:00N 56°08' W 152°20'0 0.0 5.5
2018-Feb-24 02:00N 56°08' W 152°20'1 0.9 5.5
2018-Feb-24 01:00N 56°09' W 152°19'0 0.3
2018-Feb-24 00:00N 56°09' W 152°18'1 0.9
2018-Feb-23 23:00N 56°10' W 152°17'0 0.0 5.4
2018-Feb-23 22:00N 56°10' W 152°17'1 1.2 5.4
2018-Feb-23 21:00N 56°10' W 152°15'1 0.9 5.4
2018-Feb-23 20:00N 56°11' W 152°14'2 1.0 5.4
2018-Feb-23 18:00N 56°13' W 152°12'1 1.2 5.3
2018-Feb-23 17:00N 56°14' W 152°11'0 0.3 5.3
2018-Feb-23 16:00N 56°14' W 152°11'2 2.4 5.3
2018-Feb-23 15:00N 56°16' W 152°10'0 0.3 5.3
2018-Feb-23 14:00N 56°16' W 152°10'7 6.7 5.3
2018-Feb-23 13:00N 56°23' W 152°11'0 0.0 5.5
2018-Feb-23 12:00N 56°23' W 152°11'1 0.2 5.5
2018-Feb-23 08:00N 56°23' W 152°10'0 0.3 5.6
2018-Feb-23 07:00N 56°23' W 152°10'2 1.6 5.6
2018-Feb-23 06:00N 56°25' W 152°11'1 1.4 5.6
2018-Feb-23 05:00N 56°26' W 152°13'0 0.3 5.6
2018-Feb-23 04:00N 56°26' W 152°13'2 1.8 5.6
2018-Feb-23 03:00N 56°27' W 152°16'1 1.5 5.6
2018-Feb-23 02:00N 56°28' W 152°18'0 0.0 5.6
2018-Feb-23 01:00N 56°28' W 152°18'1 0.7 5.6
2018-Feb-23 00:00N 56°28' W 152°17'2 2.4 5.6
2018-Feb-22 23:00N 56°28' W 152°21'2 1.6 5.6
2018-Feb-22 22:00N 56°29' W 152°23'0 0.0 5.6
2018-Feb-22 21:00N 56°29' W 152°23'1 0.7 5.6
2018-Feb-22 20:00N 56°30' W 152°23'1 1.3 5.6
2018-Feb-22 19:00N 56°30' W 152°26'1 1.5 5.6
2018-Feb-22 18:00N 56°31' W 152°28'1 0.7 5.6
2018-Feb-22 17:00N 56°30' W 152°29'2 1.6 5.6
2018-Feb-22 16:00N 56°29' W 152°31'0 0.0 5.6
2018-Feb-22 15:00N 56°29' W 152°31'2 1.8 5.5
2018-Feb-22 14:00N 56°28' W 152°33'2 1.2 5.3
2018-Feb-22 12:00N 56°25' W 152°34'1 0.2 5.1
2018-Feb-22 08:00N 56°25' W 152°35'1 0.7 4.8
2018-Feb-22 07:00N 56°25' W 152°35'0 0.3 4.7
2018-Feb-22 06:00N 56°25' W 152°35'0 0.3 4.7
2018-Feb-22 05:00N 56°25' W 152°36'1 0.7 4.7
2018-Feb-22 04:00N 56°25' W 152°37'0 0.0 4.5
2018-Feb-22 03:00N 56°25' W 152°37'1 0.7 4.5
2018-Feb-22 02:00N 56°25' W 152°38'1 0.9 4.5
2018-Feb-22 01:00N 56°25' W 152°40'1 0.9 4.6
2018-Feb-22 00:00N 56°24' W 152°41'0 0.0 4.6
2018-Feb-21 23:00N 56°24' W 152°41'1 0.7 4.6
2018-Feb-21 22:00N 56°24' W 152°42'0 0.0 4.6
2018-Feb-21 20:00N 56°24' W 152°42'0 0.3 4.7
2018-Feb-21 19:00N 56°24' W 152°43'0 0.3 4.6
2018-Feb-21 18:00N 56°24' W 152°43'1 0.7 4.7
2018-Feb-21 17:00N 56°24' W 152°44'1 0.7 4.6
2018-Feb-21 16:00N 56°24' W 152°46'0 0.3 4.6
2018-Feb-21 15:00N 56°24' W 152°46'0 0.3 4.6
2018-Feb-21 14:00N 56°24' W 152°47'1 1.4 4.6
2018-Feb-21 13:00N 56°23' W 152°48'1 0.7 4.6
2018-Feb-21 12:00N 56°23' W 152°47'1 0.2 4.6
2018-Feb-21 08:00N 56°23' W 152°48'1 0.9 4.6
2018-Feb-21 07:00N 56°23' W 152°47'1 0.9 4.6
2018-Feb-21 06:00N 56°24' W 152°48'1 0.7 4.6
2018-Feb-21 05:00N 56°25' W 152°49'1 0.6 4.6
2018-Feb-21 04:00N 56°25' W 152°49'2 0.8 4.6
2018-Feb-21 02:00N 56°25' W 152°52'1 0.7 4.6
2018-Feb-21 01:00N 56°25' W 152°52'0 0.3 4.6
2018-Feb-21 00:00N 56°25' W 152°53'1 0.7 4.7
2018-Feb-20 23:00N 56°24' W 152°52'0 0.0 4.7
2018-Feb-20 22:00N 56°24' W 152°52'1 0.7 4.7
2018-Feb-20 21:00N 56°25' W 152°53'1 0.4 4.7
2018-Feb-20 19:00N 56°25' W 152°54'1 0.4 4.7
2018-Feb-20 17:00N 56°26' W 152°55'1 0.9 4.7
2018-Feb-20 16:00N 56°26' W 152°56'2 2.0 4.7
2018-Feb-20 15:00N 56°26' W 153°00'1 0.7 4.7
2018-Feb-20 14:00N 56°26' W 152°59'1 0.9 4.7
2018-Feb-20 13:00N 56°26' W 153°00'0 0.0 4.7
2018-Feb-20 12:00N 56°26' W 153°00'3 1.0 4.6
2018-Feb-20 09:00N 56°23' W 153°01'0 0.0 4.6
2018-Feb-20 08:00N 56°23' W 153°01'2 1.8 4.6
2018-Feb-20 07:00N 56°23' W 152°58'1 0.6 4.6
2018-Feb-20 06:00N 56°24' W 152°58'1 0.7 4.6
2018-Feb-20 04:00N 56°25' W 152°57'2 0.9 4.6
2018-Feb-20 02:00N 56°26' W 152°59'0 0.0 4.7
2018-Feb-20 01:00N 56°26' W 152°59'1 0.9 4.8
2018-Feb-20 00:00N 56°26' W 153°01'1 1.2 4.8
2018-Feb-19 23:00N 56°25' W 153°00'1 0.3 4.7
2018-Feb-19 21:00N 56°24' W 152°59'1 0.3 4.7
2018-Feb-19 19:00N 56°23' W 152°59'2 0.9 4.7
2018-Feb-19 17:00N 56°25' W 152°56'1 0.7 4.7
2018-Feb-19 16:00N 56°25' W 152°56'0 0.3 4.7
2018-Feb-19 15:00N 56°25' W 152°56'1 0.6 4.7
2018-Feb-19 14:00N 56°26' W 152°56'1 0.7 4.7
2018-Feb-19 13:00N 56°26' W 152°58'2 2.4 4.7
2018-Feb-19 12:00N 56°24' W 152°55'1 0.2 4.7
2018-Feb-19 08:00N 56°24' W 152°53'1 1.2 4.6
2018-Feb-19 07:00N 56°25' W 152°52'0 0.3 4.7
2018-Feb-19 06:00N 56°25' W 152°51'1 1.4 4.6
2018-Feb-19 05:00N 56°26' W 152°50'1 0.7 4.7
2018-Feb-19 04:00N 56°26' W 152°49'0 0.3 4.7
2018-Feb-19 03:00N 56°26' W 152°50'2 2.4 4.7
2018-Feb-19 02:00N 56°28' W 152°53'1 1.2 4.7
2018-Feb-19 01:00N 56°28' W 152°55'0 0.0 4.7
2018-Feb-19 00:00N 56°28' W 152°55'0 0.3 4.7
2018-Feb-18 23:00N 56°28' W 152°55'3 1.6 4.7
2018-Feb-18 21:00N 56°25' W 152°57'1 0.7 4.7
2018-Feb-18 20:00N 56°25' W 152°58'2 1.0 4.7
2018-Feb-18 18:00N 56°23' W 152°57'0 0.0 4.7
2018-Feb-18 17:00N 56°23' W 152°57'1 0.7 4.7
2018-Feb-18 16:00N 56°22' W 152°56'0 0.0 4.7
2018-Feb-18 15:00N 56°22' W 152°56'1 0.7 4.7
2018-Feb-18 14:00N 56°22' W 152°58'5 5.0 4.7
2018-Feb-18 13:00N 56°18' W 152°53'0 0.1 4.6
2018-Feb-18 08:00N 56°18' W 152°52'0 0.3 4.6
2018-Feb-18 07:00N 56°18' W 152°52'1 0.9 4.7
2018-Feb-18 06:00N 56°17' W 152°50'0 0.3 4.8
2018-Feb-18 05:00N 56°17' W 152°50'1 0.7 4.9
2018-Feb-18 04:00N 56°17' W 152°49'1 0.7 4.8
2018-Feb-18 03:00N 56°17' W 152°49'0 0.0 5.0
2018-Feb-18 02:00N 56°17' W 152°49'0 0.3 5.3
2018-Feb-18 01:00N 56°17' W 152°50'0 0.0 5.6
2018-Feb-18 00:00N 56°17' W 152°50'1 0.7 5.6
2018-Feb-17 23:00N 56°16' W 152°50'0 0.3 5.6
2018-Feb-17 22:00N 56°16' W 152°50'1 0.3 5.6
2018-Feb-17 20:00N 56°16' W 152°50'0 0.0 5.5
2018-Feb-17 18:00N 56°16' W 152°50'1 0.7 5.5
2018-Feb-17 17:00N 56°15' W 152°50'0 0.3 5.5
2018-Feb-17 16:00N 56°15' W 152°50'1 1.2 5.3
2018-Feb-17 15:00N 56°14' W 152°49'1 0.7 5.3
2018-Feb-17 14:00N 56°14' W 152°50'2 1.8 5.3
2018-Feb-17 13:00N 56°13' W 152°47'0 0.0 5.4
2018-Feb-17 08:00N 56°13' W 152°47'1 0.9 5.5
2018-Feb-17 07:00N 56°14' W 152°46'0 0.3 5.5
2018-Feb-17 06:00N 56°14' W 152°47'0 0.0 5.4
2018-Feb-17 05:00N 56°14' W 152°47'1 0.6 5.4
2018-Feb-17 04:00N 56°14' W 152°47'0 0.3 5.5
2018-Feb-17 03:00N 56°14' W 152°47'1 0.6 5.5
2018-Feb-17 02:00N 56°15' W 152°47'0 0.3 5.6
2018-Feb-17 01:00N 56°15' W 152°47'0 0.0 5.6
2018-Feb-17 00:00N 56°15' W 152°47'1 0.7 5.6
2018-Feb-16 22:00N 56°16' W 152°46'1 0.7 5.6
2018-Feb-16 20:00N 56°17' W 152°47'1 0.7 5.5
2018-Feb-16 19:00N 56°17' W 152°46'2 0.9 5.5
2018-Feb-16 17:00N 56°19' W 152°47'1 0.7 5.1
2018-Feb-16 16:00N 56°19' W 152°47'0 0.0 4.9
2018-Feb-16 15:00N 56°19' W 152°47'0 0.3 5.1
2018-Feb-16 14:00N 56°19' W 152°48'0 0.0 5.2
2018-Feb-16 13:00N 56°19' W 152°48'4 4.1 5.5
2018-Feb-16 12:00N 56°16' W 152°44'1 0.2 5.5
2018-Feb-16 08:00N 56°16' W 152°43'2 2.0 5.6
2018-Feb-16 07:00N 56°16' W 152°40'0 0.0 5.6
2018-Feb-16 06:00N 56°16' W 152°40'1 0.7 5.5
2018-Feb-16 05:00N 56°16' W 152°38'3 3.1 5.5
2018-Feb-16 04:00N 56°16' W 152°33'1 0.9 5.5
2018-Feb-16 03:00N 56°16' W 152°34'0 0.0 5.5
2018-Feb-16 02:00N 56°16' W 152°34'1 0.7 5.5
2018-Feb-16 01:00N 56°15' W 152°34'   5.6
Track history (hours):
 
Tides and Currents Weather Stations Pressure Air Temp Water Temp Dewpoint Dewpoint Depression Visibility Wind Speed Wind Dir Waves Ship Positions

Drifting buoy 46565

Last reported at 2018-Feb-26 01:00 UTC. Time now 2018-Feb-26 02:05 UTC.
Position N 55°38' W 151°35'.

Water temperature 4.0 ° C

Date/timePositionNaut miles runAvg speedWind from/ knotsBaromVisibWave heightAir tempDewpointWater temp
2018-Feb-26 01:00N 55°38' W 151°35'0 0.0 4.0
2018-Feb-26 00:00N 55°38' W 151°35'0 0.3 4.0
2018-Feb-25 23:00N 55°38' W 151°36'1 1.2 4.0
2018-Feb-25 22:00N 55°38' W 151°38'0 0.0 4.0
2018-Feb-25 21:00N 55°38' W 151°38'1 0.9 4.0
2018-Feb-25 20:00N 55°38' W 151°39'0 0.3 4.0
2018-Feb-25 19:00N 55°38' W 151°40'1 1.2 4.0
2018-Feb-25 18:00N 55°40' W 151°40'0 0.3 4.0
2018-Feb-25 17:00N 55°40' W 151°41'1 1.2 4.0
2018-Feb-25 16:00N 55°40' W 151°43'2 1.1 4.0
2018-Feb-25 14:00N 55°41' W 151°46'1 0.6 4.1
2018-Feb-25 13:00N 55°41' W 151°46'6 1.2 4.1
2018-Feb-25 08:00N 55°44' W 151°56'1 1.2 4.2
2018-Feb-25 07:00N 55°44' W 151°58'1 0.7 4.2
2018-Feb-25 06:00N 55°45' W 151°58'1 1.2 4.2
2018-Feb-25 05:00N 55°46' W 151°59'1 1.4 4.2
2018-Feb-25 04:00N 55°47' W 152°01'1 0.9 4.2
2018-Feb-25 03:00N 55°47' W 152°02'2 1.6 4.2
2018-Feb-25 02:00N 55°49' W 152°04'2 1.8 4.2
2018-Feb-25 01:00N 55°50' W 152°06'1 1.5 4.3
2018-Feb-25 00:00N 55°50' W 152°08'0 0.0 4.3
2018-Feb-24 23:00N 55°50' W 152°08'3 1.3 4.4
2018-Feb-24 21:00N 55°52' W 152°13'1 0.9 4.5
2018-Feb-24 20:00N 55°52' W 152°14'1 1.2 4.6
2018-Feb-24 19:00N 55°53' W 152°16'1 1.2 4.6
2018-Feb-24 18:00N 55°54' W 152°16'1 0.7 4.8
2018-Feb-24 17:00N 55°55' W 152°16'1 1.2 4.9
2018-Feb-24 16:00N 55°56' W 152°17'2 2.5 5.0
2018-Feb-24 15:00N 55°58' W 152°18'8 7.8 5.1
2018-Feb-24 14:00N 56°05' W 152°23'0 0.0 5.2
2018-Feb-24 13:00N 56°05' W 152°23'1 0.1 5.3
2018-Feb-24 08:00N 56°06' W 152°23'1 0.7 5.5
2018-Feb-24 07:00N 56°07' W 152°23'0 0.3 5.5
2018-Feb-24 06:00N 56°07' W 152°23'1 0.9 5.5
2018-Feb-24 05:00N 56°07' W 152°22'2 1.8 5.5
2018-Feb-24 04:00N 56°08' W 152°19'0 0.3 5.5
2018-Feb-24 03:00N 56°08' W 152°20'0 0.0 5.5
2018-Feb-24 02:00N 56°08' W 152°20'1 0.9 5.5
2018-Feb-24 01:00N 56°09' W 152°19'0 0.3
2018-Feb-24 00:00N 56°09' W 152°18'1 0.9
2018-Feb-23 23:00N 56°10' W 152°17'0 0.0 5.4
2018-Feb-23 22:00N 56°10' W 152°17'1 1.2 5.4
2018-Feb-23 21:00N 56°10' W 152°15'1 0.9 5.4
2018-Feb-23 20:00N 56°11' W 152°14'2 1.0 5.4
2018-Feb-23 18:00N 56°13' W 152°12'1 1.2 5.3
2018-Feb-23 17:00N 56°14' W 152°11'0 0.3 5.3
2018-Feb-23 16:00N 56°14' W 152°11'2 2.4 5.3
2018-Feb-23 15:00N 56°16' W 152°10'0 0.3 5.3
2018-Feb-23 14:00N 56°16' W 152°10'7 6.7 5.3
2018-Feb-23 13:00N 56°23' W 152°11'0 0.0 5.5
2018-Feb-23 12:00N 56°23' W 152°11'1 0.2 5.5
2018-Feb-23 08:00N 56°23' W 152°10'0 0.3 5.6
2018-Feb-23 07:00N 56°23' W 152°10'2 1.6 5.6
2018-Feb-23 06:00N 56°25' W 152°11'1 1.4 5.6
2018-Feb-23 05:00N 56°26' W 152°13'0 0.3 5.6
2018-Feb-23 04:00N 56°26' W 152°13'2 1.8 5.6
2018-Feb-23 03:00N 56°27' W 152°16'1 1.5 5.6
2018-Feb-23 02:00N 56°28' W 152°18'0 0.0 5.6
2018-Feb-23 01:00N 56°28' W 152°18'1 0.7 5.6
2018-Feb-23 00:00N 56°28' W 152°17'2 2.4 5.6
2018-Feb-22 23:00N 56°28' W 152°21'2 1.6 5.6
2018-Feb-22 22:00N 56°29' W 152°23'0 0.0 5.6
2018-Feb-22 21:00N 56°29' W 152°23'1 0.7 5.6
2018-Feb-22 20:00N 56°30' W 152°23'1 1.3 5.6
2018-Feb-22 19:00N 56°30' W 152°26'1 1.5 5.6
2018-Feb-22 18:00N 56°31' W 152°28'1 0.7 5.6
2018-Feb-22 17:00N 56°30' W 152°29'2 1.6 5.6
2018-Feb-22 16:00N 56°29' W 152°31'0 0.0 5.6
2018-Feb-22 15:00N 56°29' W 152°31'2 1.8 5.5
2018-Feb-22 14:00N 56°28' W 152°33'2 1.2 5.3
2018-Feb-22 12:00N 56°25' W 152°34'1 0.2 5.1
2018-Feb-22 08:00N 56°25' W 152°35'1 0.7 4.8
2018-Feb-22 07:00N 56°25' W 152°35'0 0.3 4.7
2018-Feb-22 06:00N 56°25' W 152°35'0 0.3 4.7
2018-Feb-22 05:00N 56°25' W 152°36'1 0.7 4.7
2018-Feb-22 04:00N 56°25' W 152°37'0 0.0 4.5
2018-Feb-22 03:00N 56°25' W 152°37'1 0.7 4.5
2018-Feb-22 02:00N 56°25' W 152°38'1 0.9 4.5
2018-Feb-22 01:00N 56°25' W 152°40'1 0.9 4.6
2018-Feb-22 00:00N 56°24' W 152°41'0 0.0 4.6
2018-Feb-21 23:00N 56°24' W 152°41'1 0.7 4.6
2018-Feb-21 22:00N 56°24' W 152°42'0 0.0 4.6
2018-Feb-21 20:00N 56°24' W 152°42'0 0.3 4.7
2018-Feb-21 19:00N 56°24' W 152°43'0 0.3 4.6
2018-Feb-21 18:00N 56°24' W 152°43'1 0.7 4.7
2018-Feb-21 17:00N 56°24' W 152°44'1 0.7 4.6
2018-Feb-21 16:00N 56°24' W 152°46'0 0.3 4.6
2018-Feb-21 15:00N 56°24' W 152°46'0 0.3 4.6
2018-Feb-21 14:00N 56°24' W 152°47'1 1.4 4.6
2018-Feb-21 13:00N 56°23' W 152°48'1 0.7 4.6
2018-Feb-21 12:00N 56°23' W 152°47'1 0.2 4.6
2018-Feb-21 08:00N 56°23' W 152°48'1 0.9 4.6
2018-Feb-21 07:00N 56°23' W 152°47'1 0.9 4.6
2018-Feb-21 06:00N 56°24' W 152°48'1 0.7 4.6
2018-Feb-21 05:00N 56°25' W 152°49'1 0.6 4.6
2018-Feb-21 04:00N 56°25' W 152°49'2 0.8 4.6
2018-Feb-21 02:00N 56°25' W 152°52'1 0.7 4.6
2018-Feb-21 01:00N 56°25' W 152°52'0 0.3 4.6
2018-Feb-21 00:00N 56°25' W 152°53'1 0.7 4.7
2018-Feb-20 23:00N 56°24' W 152°52'0 0.0 4.7
2018-Feb-20 22:00N 56°24' W 152°52'1 0.7 4.7
2018-Feb-20 21:00N 56°25' W 152°53'1 0.4 4.7
2018-Feb-20 19:00N 56°25' W 152°54'1 0.4 4.7
2018-Feb-20 17:00N 56°26' W 152°55'1 0.9 4.7
2018-Feb-20 16:00N 56°26' W 152°56'2 2.0 4.7
2018-Feb-20 15:00N 56°26' W 153°00'1 0.7 4.7
2018-Feb-20 14:00N 56°26' W 152°59'1 0.9 4.7
2018-Feb-20 13:00N 56°26' W 153°00'0 0.0 4.7
2018-Feb-20 12:00N 56°26' W 153°00'3 1.0 4.6
2018-Feb-20 09:00N 56°23' W 153°01'0 0.0 4.6
2018-Feb-20 08:00N 56°23' W 153°01'2 1.8 4.6
2018-Feb-20 07:00N 56°23' W 152°58'1 0.6 4.6
2018-Feb-20 06:00N 56°24' W 152°58'1 0.7 4.6
2018-Feb-20 04:00N 56°25' W 152°57'2 0.9 4.6
2018-Feb-20 02:00N 56°26' W 152°59'0 0.0 4.7
2018-Feb-20 01:00N 56°26' W 152°59'1 0.9 4.8
2018-Feb-20 00:00N 56°26' W 153°01'1 1.2 4.8
2018-Feb-19 23:00N 56°25' W 153°00'1 0.3 4.7
2018-Feb-19 21:00N 56°24' W 152°59'1 0.3 4.7
2018-Feb-19 19:00N 56°23' W 152°59'2 0.9 4.7
2018-Feb-19 17:00N 56°25' W 152°56'1 0.7 4.7
2018-Feb-19 16:00N 56°25' W 152°56'0 0.3 4.7
2018-Feb-19 15:00N 56°25' W 152°56'1 0.6 4.7
2018-Feb-19 14:00N 56°26' W 152°56'1 0.7 4.7
2018-Feb-19 13:00N 56°26' W 152°58'2 2.4 4.7
2018-Feb-19 12:00N 56°24' W 152°55'1 0.2 4.7
2018-Feb-19 08:00N 56°24' W 152°53'1 1.2 4.6
2018-Feb-19 07:00N 56°25' W 152°52'0 0.3 4.7
2018-Feb-19 06:00N 56°25' W 152°51'1 1.4 4.6
2018-Feb-19 05:00N 56°26' W 152°50'1 0.7 4.7
2018-Feb-19 04:00N 56°26' W 152°49'0 0.3 4.7
2018-Feb-19 03:00N 56°26' W 152°50'2 2.4 4.7
2018-Feb-19 02:00N 56°28' W 152°53'1 1.2 4.7
2018-Feb-19 01:00N 56°28' W 152°55'0 0.0 4.7
2018-Feb-19 00:00N 56°28' W 152°55'0 0.3 4.7
2018-Feb-18 23:00N 56°28' W 152°55'3 1.6 4.7
2018-Feb-18 21:00N 56°25' W 152°57'1 0.7 4.7
2018-Feb-18 20:00N 56°25' W 152°58'2 1.0 4.7
2018-Feb-18 18:00N 56°23' W 152°57'0 0.0 4.7
2018-Feb-18 17:00N 56°23' W 152°57'1 0.7 4.7
2018-Feb-18 16:00N 56°22' W 152°56'0 0.0 4.7
2018-Feb-18 15:00N 56°22' W 152°56'1 0.7 4.7
2018-Feb-18 14:00N 56°22' W 152°58'5 5.0 4.7
2018-Feb-18 13:00N 56°18' W 152°53'0 0.1 4.6
2018-Feb-18 08:00N 56°18' W 152°52'0 0.3 4.6
2018-Feb-18 07:00N 56°18' W 152°52'1 0.9 4.7
2018-Feb-18 06:00N 56°17' W 152°50'0 0.3 4.8
2018-Feb-18 05:00N 56°17' W 152°50'1 0.7 4.9
2018-Feb-18 04:00N 56°17' W 152°49'1 0.7 4.8
2018-Feb-18 03:00N 56°17' W 152°49'0 0.0 5.0
2018-Feb-18 02:00N 56°17' W 152°49'0 0.3 5.3
2018-Feb-18 01:00N 56°17' W 152°50'0 0.0 5.6
2018-Feb-18 00:00N 56°17' W 152°50'1 0.7 5.6
2018-Feb-17 23:00N 56°16' W 152°50'0 0.3 5.6
2018-Feb-17 22:00N 56°16' W 152°50'1 0.3 5.6
2018-Feb-17 20:00N 56°16' W 152°50'0 0.0 5.5
2018-Feb-17 18:00N 56°16' W 152°50'1 0.7 5.5
2018-Feb-17 17:00N 56°15' W 152°50'0 0.3 5.5
2018-Feb-17 16:00N 56°15' W 152°50'1 1.2 5.3
2018-Feb-17 15:00N 56°14' W 152°49'1 0.7 5.3
2018-Feb-17 14:00N 56°14' W 152°50'2 1.8 5.3
2018-Feb-17 13:00N 56°13' W 152°47'0 0.0 5.4
2018-Feb-17 08:00N 56°13' W 152°47'1 0.9 5.5
2018-Feb-17 07:00N 56°14' W 152°46'0 0.3 5.5
2018-Feb-17 06:00N 56°14' W 152°47'0 0.0 5.4
2018-Feb-17 05:00N 56°14' W 152°47'1 0.6 5.4
2018-Feb-17 04:00N 56°14' W 152°47'0 0.3 5.5
2018-Feb-17 03:00N 56°14' W 152°47'1 0.6 5.5
2018-Feb-17 02:00N 56°15' W 152°47'0 0.3 5.6
2018-Feb-17 01:00N 56°15' W 152°47'0 0.0 5.6
2018-Feb-17 00:00N 56°15' W 152°47'1 0.7 5.6
2018-Feb-16 22:00N 56°16' W 152°46'1 0.7 5.6
2018-Feb-16 20:00N 56°17' W 152°47'1 0.7 5.5
2018-Feb-16 19:00N 56°17' W 152°46'2 0.9 5.5
2018-Feb-16 17:00N 56°19' W 152°47'1 0.7 5.1
2018-Feb-16 16:00N 56°19' W 152°47'0 0.0 4.9
2018-Feb-16 15:00N 56°19' W 152°47'0 0.3 5.1
2018-Feb-16 14:00N 56°19' W 152°48'0 0.0 5.2
2018-Feb-16 13:00N 56°19' W 152°48'4 4.1 5.5
2018-Feb-16 12:00N 56°16' W 152°44'1 0.2 5.5
2018-Feb-16 08:00N 56°16' W 152°43'2 2.0 5.6
2018-Feb-16 07:00N 56°16' W 152°40'0 0.0 5.6
2018-Feb-16 06:00N 56°16' W 152°40'1 0.7 5.5
2018-Feb-16 05:00N 56°16' W 152°38'3 3.1 5.5
2018-Feb-16 04:00N 56°16' W 152°33'1 0.9 5.5
2018-Feb-16 03:00N 56°16' W 152°34'0 0.0 5.5
2018-Feb-16 02:00N 56°16' W 152°34'1 0.7 5.5
2018-Feb-16 01:00N 56°15' W 152°34'   5.6

Dump ship's entire track history